x

Sheboygan, Wi (sgnw3) Weather Station

2:00pm - Sat 6th Feb 2016 All times are CST. -6 hours from GMT.

  • Wind
    13mph, 16mph gusts
  • Air Temp 31°f
  • Sea Pressure 1020.8mb
  • Sheboygan, Wi
  • Sheboygan, Wi

More Historic Weather Station data

Upgrade to MSW Pro to gain access to the past 30 days of data for over 8000 Wavebouys and Weather Stations around the globe.

Join Pro

Comparision Forecast

View Surf forecast
   
Sat 02/06 2:00pm 13 16 mph 1020.8mb 31f
1:00pm 14 16 mph 1021.1mb 31f
12:00pm 13 15 mph 1021.6mb 30f
11:00am 15 17 mph 1022.1mb 30f
10:00am 14 17 mph 1022.7mb 30f
9:00am 15 17 mph 1022.8mb 30f
8:00am 14 18 mph 1023mb 29f
7:00am 13 14 mph 1023.2mb 29f
6:00am 10 14 mph 1023.2mb 29f
5:00am 13 14 mph 1023.2mb 29f
4:00am 11 14 mph 1023.9mb 29f
3:00am 15 17 mph 1024.1mb 29f
2:00am 15 17 mph 1024.2mb 28f
1:00am 17 22 mph 1024.6mb 28f
12:00am 10 13 mph 1025.1mb 28f
Fri 02/05 11:00pm 11 14 mph 1025.3mb 28f
10:00pm 9 10 mph 1026.2mb 27f
9:00pm 8 9 mph 1026.8mb 26f
8:00pm 10 13 mph 1027.2mb 26f
7:00pm 9 10 mph 1027.7mb 26f
6:00pm 6
mph
1028.1mb 27f
5:00pm 8 9 mph 1028.1mb 27f
4:00pm 8 10 mph 1027.9mb 26f
3:00pm 8 10 mph 1027.8mb 26f
2:00pm 8 10 mph 1027.7mb 26f
1:00pm 11 13 mph 1028.1mb 26f
12:00pm 6 7 mph 1028.3mb 25f
11:00am 9 13 mph 1028.8mb 24f
10:00am 14 17 mph 1028.8mb 23f
9:00am 15 18 mph 1028.9mb 22f
8:00am 11 14 mph 1028.2mb 21f
7:00am 10 13 mph 1027.8mb 22f
6:00am 8 9 mph 1026.9mb 23f
5:00am 6 9 mph 1026.5mb 24f
4:00am 9 10 mph 1026.1mb 26f
3:00am 6 8 mph 1025.5mb 27f
2:00am 5 6 mph 1025.4mb 28f
1:00am 7
mph
1024.9mb 28f
12:00am 9 10 mph 1024.4mb 28f
Thu 02/04 11:00pm 11 13 mph 1024.2mb 28f
10:00pm 11 13 mph 1023.9mb 28f
9:00pm 9 11 mph 1024mb 29f
8:00pm 10 11 mph 1024mb 28f
7:00pm 7 9 mph 1024mb 28f
6:00pm 9 11 mph 1023.8mb 27f
5:00pm 7 9 mph 1023.4mb 26f
4:00pm 8 10 mph 1023.1mb 27f
3:00pm 8 10 mph 1022.7mb 26f
2:00pm 7 9 mph 1022.5mb 25f
1:00pm 13 16 mph 1022.7mb 24f
12:00pm 11 13 mph 1022.9mb 23f
11:00am 11 14 mph 1023.2mb 22f
10:00am 14 17 mph 1023.2mb 22f
9:00am 11 14 mph 1023mb 21f
8:00am 14 16 mph 1022.6mb 21f
7:00am 14 16 mph 1021.7mb 21f
6:00am 11 14 mph 1020.8mb 21f
5:00am 13 15 mph 1020.2mb 21f
4:00am 10 13 mph 1019.4mb 22f
3:00am 13 16 mph 1019mb 22f
2:00am 9 11 mph 1018.8mb 24f
1:00am 11 15 mph 1018mb 24f
12:00am 9 11 mph 1017.4mb 26f
Wed 02/03 11:00pm 9 11 mph 1017mb 27f
10:00pm 15 21 mph 1016mb 27f
9:00pm 16 20 mph 1014.8mb 28f
8:00pm 16 22 mph 1013.8mb 29f
7:00pm 13 15 mph 1012.7mb 30f
6:00pm 15 17 mph 1011.3mb 31f
5:00pm 13 17 mph 1009.6mb 32f
4:00pm 13 20 mph 1007.7mb 32f
3:00pm 15 18 mph 1005.7mb 33f
2:00pm 14 18 mph 1003.9mb 33f
1:00pm 10 13 mph 1002.7mb 32f
12:00pm 13 15 mph 1001.5mb 31f
11:00am 11 14 mph 1000.6mb 30f
10:00am 10 11 mph 999.5mb 32f
9:00am 8 9 mph 998.4mb 33f
8:00am 5 6 mph 998.2mb 33f
7:00am 9
mph
997.8mb 34f
6:00am 5
mph
998.2mb 34f
5:00am 8 9 mph 998.1mb 34f
4:00am 8 9 mph 997.6mb 35f
3:00am 7 8 mph 998mb 35f
2:00am 9 10 mph 998mb 35f
1:00am 5 6 mph 998.9mb 35f
12:00am 5 6 mph 999.4mb 36f
Tue 02/02 11:00pm 8 9 mph 1000.5mb 36f
10:00pm 15 16 mph 1001.4mb 35f